CDT,Max TemperatureF,Mean TemperatureF,Min TemperatureF,Max Dew PointF,MeanDew PointF,Min DewpointF,Max Humidity, Mean Humidity, Min Humidity, Max Sea Level PressureIn, Mean Sea Level PressureIn, Min Sea Level PressureIn, Max VisibilityMiles, Mean VisibilityMiles, Min VisibilityMiles, Max Wind SpeedMPH, Mean Wind SpeedMPH, Max Gust SpeedMPH,PrecipitationIn, CloudCover, Events, WindDirDegrees
2012-10-1,69,50,32,50,40,32,100,72,35,29.94,29.89,29.83,10,10,4,13,2,18,0.00,0,,256
2012-10-2,68,50,32,45,34,23,100,67,18,29.98,29.94,29.90,10,7,0,8,0,,0.00,1,Fog,89
2012-10-3,71,52,32,50,40,30,100,73,35,30.00,29.97,29.93,10,7,0,7,1,,0.00,2,Fog-Snow,168
2012-10-4,60,48,35,48,37,28,100,70,39,30.01,29.93,29.85,10,9,2,26,7,33,0.00,2,,260
2012-10-5,44,40,35,28,27,23,75,62,49,30.01,29.98,29.95,10,10,10,21,15,32,0.00,7,,280
2012-10-6,42,37,32,32,28,21,93,73,45,30.18,30.10,29.98,10,10,3,16,9,23,0.00,7,Snow,323
2012-10-7,48,36,23,27,21,14,93,58,25,30.17,30.07,29.98,10,10,10,17,3,23,0.00,2,,261
2012-10-8,55,40,26,34,27,18,69,50,41,29.97,29.82,29.69,10,10,10,20,6,29,0.00,5,Rain,202
2012-10-9,53,44,35,46,38,32,100,82,44,29.83,29.75,29.70,10,9,3,15,8,24,0.12,7,Rain,252
2012-10-10,44,37,30,32,26,19,93,66,39,30.02,29.96,29.83,10,10,10,22,9,26,0.00,5,,292
2012-10-11,50,39,28,34,26,14,76,58,27,30.30,30.02,29.83,10,10,10,16,6,25,0.00,5,,300
2012-10-12,46,32,17,28,21,14,100,68,34,30.44,30.35,30.19,10,10,10,12,2,20,0.00,0,,198
2012-10-13,44,38,33,45,40,21,100,94,60,30.17,29.88,29.73,10,5,2,9,3,,0.06,8,Rain-Thunderstorm,151
2012-10-14,44,42,41,45,42,37,100,95,87,29.77,29.69,29.61,10,10,5,14,6,21,0.24,8,Rain,10
2012-10-15,55,44,33,37,34,32,93,73,41,29.93,29.86,29.77,10,10,10,9,5,,0.00,3,,329
2012-10-16,59,47,35,48,42,34,100,74,51,29.86,29.64,29.47,10,10,7,14,3,20,0.00,6,Rain,159
2012-10-17,66,52,37,54,47,37,100,89,52,29.47,29.34,29.24,10,7,0,18,3,23,0.17,6,Fog-Rain,177
2012-10-18,48,44,41,48,43,39,100,94,81,29.41,29.25,29.15,10,8,2,12,2,,0.24,8,Rain,213
2012-10-19,46,42,37,43,40,37,100,91,76,29.67,29.56,29.43,10,9,4,10,3,,0.02,7,Rain,38
2012-10-20,51,42,32,43,39,32,100,89,67,29.87,29.78,29.67,10,9,0,7,1,,0.00,6,Fog,341
2012-10-21,60,44,28,43,36,27,100,79,48,29.98,29.94,29.88,10,7,0,10,2,,0.00,3,Fog,149
2012-10-22,62,50,39,50,45,39,100,78,52,30.01,29.98,29.95,10,9,1,13,3,20,0.02,5,Rain-Thunderstorm,84
2012-10-23,57,54,50,57,51,45,100,93,76,29.98,29.90,29.84,10,5,1,12,5,18,0.00,8,Rain-Thunderstorm,127
2012-10-24,66,62,57,63,61,57,100,98,88,29.89,29.82,29.71,10,2,0,13,3,18,0.00,8,Fog,152
2012-10-25,64,48,32,63,49,30,100,95,87,30.01,29.69,29.53,10,8,2,36,6,48,1.12,7,Rain-Thunderstorm,286
2012-10-26,37,34,30,30,26,23,93,74,60,30.31,30.22,30.02,10,10,10,17,7,23,0.00,5,,283
2012-10-27,41,34,24,25,21,14,93,65,39,30.35,30.31,30.28,10,10,10,10,2,16,0.00,3,,301
2012-10-28,42,30,17,25,20,16,100,72,39,30.38,30.34,30.31,10,10,10,5,0,,0.00,0,,199
2012-10-29,46,30,15,28,20,12,93,69,37,30.38,30.32,30.22,10,10,5,7,1,,0.00,0,,28
2012-10-30,42,36,30,28,23,19,93,66,42,30.22,30.06,29.93,10,10,10,21,9,29,0.00,0,,8
2012-10-31,44,36,28,27,19,9,86,56,29,29.92,29.88,29.83,10,10,10,15,8,20,0.00,1,,339